Time;durP1;ratioP1;P1;durP2;ratioP2;P2;SDS_P1;SDS_P2;PMS_P1;PMS_P2;Temp;Humidity;BMP_temperature;BMP_pressure;BME280_temperature;BME280_humidity;BME280_pressure;Samples;Min_cycle;Max_cycle;Signal;HPM_P1;HPM_P2
2021/12/01 00:00:06;;;;;;;11.13;6.71;;;;;;;;;;363307;145;865789;-57
2021/12/01 00:01:08;;;;;;;14.28;7.71;;;;;;;;;;364011;144;857112;-59
2021/12/01 00:02:09;;;;;;;13.65;6.26;;;;;;;;;;362712;145;865842;-58
2021/12/01 00:03:11;;;;;;;11.15;7.24;;;;;;;;;;362791;145;864969;-58
2021/12/01 00:04:13;;;;;;;13.68;7.05;;;;;;;;;;363910;145;865082;-58
2021/12/01 00:05:14;;;;;;;8.16;5.59;;;;;;;;;;362135;145;866739;-57
2021/12/01 00:06:17;;;;;;;14.61;7.29;;;;;;;;;;362300;145;865633;-58
2021/12/01 00:07:18;;;;;;;11.86;7.05;;;;;;;;;;363090;145;867142;-58
2021/12/01 00:08:20;;;;;;;12.21;6.51;;;;;;;;;;356164;148;865185;-59
2021/12/01 00:09:22;;;;;;;13.49;7.06;;;;;;;;;;357679;148;864977;-59
2021/12/01 00:10:25;;;;;;;11.47;6.78;;;;;;;;;;362500;145;866021;-58
2021/12/01 00:11:26;;;;;;;13.41;7.10;;;;;;;;;;359747;148;857819;-60
2021/12/01 00:12:28;;;;;;;12.58;6.99;;;;;;;;;;360467;146;857619;-59
2021/12/01 00:13:32;;;;;;;11.82;6.66;;;;;;;;;;359559;147;868009;-58
2021/12/01 00:14:33;;;;;;;9.16;5.46;;;;;;;;;;359279;147;864942;-57
2021/12/01 00:15:35;;;;;;;8.71;5.30;;;;;;;;;;362375;145;857187;-58
2021/12/01 00:16:37;;;;;;;10.45;6.64;;;;;;;;;;361203;147;864865;-58
2021/12/01 00:17:38;;;;;;;10.85;6.15;;;;;;;;;;363451;147;857174;-58
2021/12/01 00:18:40;;;;;;;8.74;4.82;;;;;;;;;;359903;147;865011;-58
2021/12/01 00:19:42;;;;;;;10.40;5.66;;;;;;;;;;360093;145;865066;-59
2021/12/01 00:20:43;;;;;;;8.45;5.19;;;;;;;;;;359612;147;857499;-59
2021/12/01 00:21:45;;;;;;;9.73;6.14;;;;;;;;;;361979;147;865050;-58
2021/12/01 00:22:47;;;;;;;6.77;4.60;;;;;;;;;;358878;145;865237;-58
2021/12/01 00:23:48;;;;;;;15.05;6.54;;;;;;;;;;363568;145;858210;-59
2021/12/01 00:24:50;;;;;;;9.15;5.12;;;;;;;;;;365897;145;865750;-59
2021/12/01 00:25:52;;;;;;;13.51;6.89;;;;;;;;;;365330;145;864847;-58
2021/12/01 00:26:54;;;;;;;5.75;3.77;;;;;;;;;;362935;145;865698;-58
2021/12/01 00:27:56;;;;;;;10.11;5.88;;;;;;;;;;362953;145;859341;-57
2021/12/01 00:28:57;;;;;;;8.29;5.07;;;;;;;;;;363575;145;865319;-59
2021/12/01 00:29:59;;;;;;;12.68;5.52;;;;;;;;;;361761;145;865504;-58
2021/12/01 00:31:01;;;;;;;11.71;7.03;;;;;;;;;;362553;145;865821;-59
2021/12/01 00:32:03;;;;;;;11.90;7.81;;;;;;;;;;364262;145;857674;-59
2021/12/01 00:33:04;;;;;;;8.23;5.56;;;;;;;;;;364718;145;865872;-59
2021/12/01 00:34:06;;;;;;;11.70;7.04;;;;;;;;;;365538;145;857283;-58
2021/12/01 00:35:08;;;;;;;13.16;7.32;;;;;;;;;;362418;147;864844;-58
2021/12/01 00:36:13;;;;;;;13.95;6.97;;;;;;;;;;363347;145;866222;-58
2021/12/01 00:37:13;;;;;;;11.10;6.15;;;;;;;;;;364193;145;857146;-59
2021/12/01 00:38:15;;;;;;;7.59;4.39;;;;;;;;;;362962;145;857306;-58
2021/12/01 00:39:16;;;;;;;9.58;6.04;;;;;;;;;;361801;146;865312;-59
2021/12/01 00:40:18;;;;;;;11.12;7.07;;;;;;;;;;361947;147;857160;-59
2021/12/01 00:41:22;;;;;;;9.19;5.81;;;;;;;;;;362848;145;858050;-59
2021/12/01 00:42:24;;;;;;;10.12;5.59;;;;;;;;;;362150;146;858571;-58
2021/12/01 00:43:26;;;;;;;10.07;6.46;;;;;;;;;;362698;148;857163;-58
2021/12/01 00:44:33;;;;;;;13.07;7.35;;;;;;;;;;361040;146;865728;-59
2021/12/01 00:45:34;;;;;;;8.49;5.51;;;;;;;;;;362245;146;857805;-59
2021/12/01 00:47:47;;;;;;;7.97;5.92;;;;;;;;;;362987;146;857903;-59
2021/12/01 00:48:48;;;;;;;11.67;7.62;;;;;;;;;;363507;147;864845;-58
2021/12/01 00:49:49;;;;;;;11.26;7.64;;;;;;;;;;354300;149;859031;-59
2021/12/01 00:50:51;;;;;;;10.39;6.34;;;;;;;;;;362251;145;866645;-58
2021/12/01 00:51:53;;;;;;;9.07;5.95;;;;;;;;;;362089;145;864899;-59
2021/12/01 00:52:56;;;;;;;8.82;4.33;;;;;;;;;;363317;145;857282;-59
2021/12/01 00:53:58;;;;;;;12.50;6.39;;;;;;;;;;363701;145;864847;-59
2021/12/01 00:54:59;;;;;;;13.81;6.14;;;;;;;;;;364517;145;857753;-58
2021/12/01 00:56:01;;;;;;;10.16;6.49;;;;;;;;;;363738;145;865011;-59
2021/12/01 00:57:03;;;;;;;9.94;6.00;;;;;;;;;;362852;145;865356;-58
2021/12/01 00:58:05;;;;;;;11.99;6.59;;;;;;;;;;363408;145;864899;-59
2021/12/01 00:59:06;;;;;;;10.90;6.92;;;;;;;;;;362406;145;859660;-59
2021/12/01 01:00:09;;;;;;;11.95;6.59;;;;;;;;;;363473;145;866775;-58
2021/12/01 01:01:10;;;;;;;9.86;6.60;;;;;;;;;;363525;145;859260;-59
2021/12/01 01:02:12;;;;;;;13.37;7.17;;;;;;;;;;364052;145;857282;-59
2021/12/01 01:03:14;;;;;;;11.76;6.75;;;;;;;;;;363646;145;858095;-59
2021/12/01 01:04:15;;;;;;;11.31;6.86;;;;;;;;;;363190;145;864921;-59
2021/12/01 01:05:17;;;;;;;9.69;6.51;;;;;;;;;;362918;144;866624;-59
2021/12/01 01:06:20;;;;;;;9.48;6.58;;;;;;;;;;361637;145;866747;-59
2021/12/01 01:07:22;;;;;;;14.00;6.76;;;;;;;;;;356347;148;858052;-59
2021/12/01 01:08:23;;;;;;;12.14;6.78;;;;;;;;;;362698;146;867215;-59
2021/12/01 01:09:31;;;;;;;10.37;6.55;;;;;;;;;;354504;149;865087;-59
2021/12/01 01:17:00;;;;;;;9.97;5.47;;;;;;;;;;362216;145;857142;-58
2021/12/01 01:18:05;;;;;;;8.23;4.85;;;;;;;;;;363658;146;858630;-59
2021/12/01 01:19:05;;;;;;;11.35;5.91;;;;;;;;;;364274;146;866044;-58
2021/12/01 01:20:09;;;;;;;7.86;5.51;;;;;;;;;;364425;145;858210;-59
2021/12/01 01:21:12;;;;;;;9.10;5.29;;;;;;;;;;363108;145;857190;-59
2021/12/01 01:22:14;;;;;;;11.08;7.45;;;;;;;;;;363236;145;857774;-60
2021/12/01 01:23:16;;;;;;;7.80;4.86;;;;;;;;;;363507;145;864816;-59
2021/12/01 01:24:17;;;;;;;7.94;4.97;;;;;;;;;;362874;145;866686;-58
2021/12/01 01:25:19;;;;;;;7.47;5.33;;;;;;;;;;364998;145;864691;-59
2021/12/01 01:26:21;;;;;;;10.43;6.07;;;;;;;;;;364094;145;866113;-59
2021/12/01 01:27:24;;;;;;;7.84;5.36;;;;;;;;;;364508;145;859214;-59
2021/12/01 01:28:25;;;;;;;7.54;4.96;;;;;;;;;;365116;145;865038;-58
2021/12/01 01:29:27;;;;;;;11.81;6.26;;;;;;;;;;364752;147;859246;-59
2021/12/01 01:30:29;;;;;;;9.36;6.07;;;;;;;;;;364950;145;864992;-58
2021/12/01 01:31:31;;;;;;;12.86;7.91;;;;;;;;;;364137;145;859390;-58
2021/12/01 01:32:33;;;;;;;7.47;4.46;;;;;;;;;;363023;146;857710;-57
2021/12/01 01:33:35;;;;;;;10.67;5.66;;;;;;;;;;361594;147;864883;-59
2021/12/01 01:34:36;;;;;;;9.10;6.21;;;;;;;;;;365222;145;858960;-58
2021/12/01 01:35:38;;;;;;;10.89;6.51;;;;;;;;;;362973;146;864814;-59
2021/12/01 01:36:39;;;;;;;9.84;6.40;;;;;;;;;;361941;147;865763;-58
2021/12/01 01:37:41;;;;;;;6.51;4.45;;;;;;;;;;363254;145;865100;-58
2021/12/01 01:38:43;;;;;;;12.69;5.31;;;;;;;;;;363326;146;865777;-58
2021/12/01 01:39:46;;;;;;;6.78;4.64;;;;;;;;;;363603;145;859467;-58
2021/12/01 01:40:48;;;;;;;12.99;5.30;;;;;;;;;;364675;145;857874;-58
2021/12/01 01:41:49;;;;;;;9.96;5.81;;;;;;;;;;361840;145;865716;-59
2021/12/01 01:42:51;;;;;;;8.79;5.73;;;;;;;;;;363460;145;864845;-57
2021/12/01 01:43:53;;;;;;;8.81;5.09;;;;;;;;;;363097;145;865654;-60
2021/12/01 01:44:54;;;;;;;11.74;6.09;;;;;;;;;;363600;145;859067;-59
2021/12/01 01:45:56;;;;;;;7.54;4.94;;;;;;;;;;362040;146;864859;-58
2021/12/01 01:46:58;;;;;;;9.15;5.40;;;;;;;;;;363902;145;865478;-59
2021/12/01 01:48:03;;;;;;;11.90;5.42;;;;;;;;;;361166;145;857204;-58
2021/12/01 01:49:18;;;;;;;8.27;5.30;;;;;;;;;;363553;145;858093;-57
2021/12/01 01:50:50;;;;;;;7.91;4.53;;;;;;;;;;364261;146;865590;-58
2021/12/01 01:51:27;;;;;;;6.77;4.96;;;;;;;;;;354963;146;857805;-58
2021/12/01 01:52:29;;;;;;;7.93;4.74;;;;;;;;;;363431;145;858916;-58
2021/12/01 01:53:31;;;;;;;7.81;5.25;;;;;;;;;;363211;146;864830;-59
2021/12/01 01:54:33;;;;;;;8.13;5.17;;;;;;;;;;355995;148;857147;-59
2021/12/01 01:55:35;;;;;;;13.01;6.42;;;;;;;;;;363079;145;857852;-59
2021/12/01 01:56:36;;;;;;;7.83;5.19;;;;;;;;;;363446;146;864936;-58
2021/12/01 01:57:38;;;;;;;13.16;6.16;;;;;;;;;;362202;145;857236;-58
2021/12/01 01:58:40;;;;;;;7.45;4.54;;;;;;;;;;363968;145;865813;-59
2021/12/01 01:59:41;;;;;;;5.17;3.73;;;;;;;;;;355523;148;866644;-58
2021/12/01 02:00:53;;;;;;;5.05;4.18;;;;;;;;;;356782;147;865408;-58
2021/12/01 02:01:56;;;;;;;7.42;4.86;;;;;;;;;;355806;147;857526;-59
2021/12/01 02:02:59;;;;;;;7.96;4.17;;;;;;;;;;363597;145;857198;-59
2021/12/01 02:04:01;;;;;;;9.26;6.52;;;;;;;;;;362170;146;857450;-59
2021/12/01 02:05:03;;;;;;;6.42;4.71;;;;;;;;;;360949;146;865046;-58
2021/12/01 02:06:05;;;;;;;7.39;5.20;;;;;;;;;;362931;146;857197;-59
2021/12/01 02:07:07;;;;;;;7.92;5.68;;;;;;;;;;362566;146;857134;-59
2021/12/01 02:08:16;;;;;;;8.56;5.28;;;;;;;;;;361742;147;857062;-59
2021/12/01 02:09:12;;;;;;;9.17;6.26;;;;;;;;;;360781;147;866085;-59
2021/12/01 02:10:14;;;;;;;7.69;5.47;;;;;;;;;;362040;146;865439;-59
2021/12/01 02:11:17;;;;;;;10.35;6.69;;;;;;;;;;360379;146;858586;-59
2021/12/01 02:12:19;;;;;;;9.01;5.01;;;;;;;;;;360321;146;857221;-59
2021/12/01 02:13:20;;;;;;;9.77;5.16;;;;;;;;;;362853;146;858934;-58
2021/12/01 02:14:22;;;;;;;8.18;5.12;;;;;;;;;;361526;146;864797;-58
2021/12/01 02:15:24;;;;;;;7.40;4.33;;;;;;;;;;361055;148;866491;-59
2021/12/01 02:16:26;;;;;;;9.05;5.64;;;;;;;;;;361839;147;857298;-59
2021/12/01 02:17:27;;;;;;;8.45;5.96;;;;;;;;;;361853;145;864860;-59
2021/12/01 02:18:29;;;;;;;6.63;4.11;;;;;;;;;;362683;146;868502;-59
2021/12/01 02:19:31;;;;;;;8.96;6.17;;;;;;;;;;362780;145;864871;-58
2021/12/01 02:20:32;;;;;;;8.77;5.67;;;;;;;;;;360886;146;865506;-58
2021/12/01 02:21:34;;;;;;;10.52;6.29;;;;;;;;;;361761;147;864828;-58
2021/12/01 02:22:36;;;;;;;6.27;4.71;;;;;;;;;;359714;147;865994;-58
2021/12/01 02:23:38;;;;;;;9.41;5.64;;;;;;;;;;359846;147;857111;-59
2021/12/01 02:24:40;;;;;;;11.44;5.59;;;;;;;;;;363027;146;866830;-58
2021/12/01 02:25:42;;;;;;;10.41;7.11;;;;;;;;;;362326;148;867180;-59
2021/12/01 02:26:44;;;;;;;8.93;5.15;;;;;;;;;;362190;146;865318;-59
2021/12/01 02:27:46;;;;;;;7.05;4.93;;;;;;;;;;361623;146;857771;-59
2021/12/01 02:28:48;;;;;;;9.63;5.70;;;;;;;;;;361964;146;857716;-58
2021/12/01 02:29:51;;;;;;;8.46;5.02;;;;;;;;;;359842;146;866240;-57
2021/12/01 02:30:53;;;;;;;10.27;6.24;;;;;;;;;;361313;147;865163;-58
2021/12/01 02:31:55;;;;;;;8.48;4.65;;;;;;;;;;361240;146;857572;-59
2021/12/01 02:32:58;;;;;;;9.23;5.42;;;;;;;;;;361115;146;858145;-59
2021/12/01 02:34:00;;;;;;;9.19;4.19;;;;;;;;;;359458;146;857081;-59
2021/12/01 02:35:02;;;;;;;7.71;4.55;;;;;;;;;;362925;145;857776;-59
2021/12/01 02:36:06;;;;;;;14.59;6.88;;;;;;;;;;359688;146;857634;-58
2021/12/01 02:37:07;;;;;;;10.31;5.79;;;;;;;;;;360796;146;857124;-58
2021/12/01 02:38:09;;;;;;;8.44;5.53;;;;;;;;;;362113;147;866252;-59
2021/12/01 02:39:13;;;;;;;12.79;6.39;;;;;;;;;;362966;146;857406;-59
2021/12/01 02:40:15;;;;;;;9.39;5.74;;;;;;;;;;361417;147;865598;-58
2021/12/01 02:41:18;;;;;;;7.71;5.23;;;;;;;;;;360956;146;865437;-59
2021/12/01 02:42:20;;;;;;;7.11;4.34;;;;;;;;;;356443;149;858839;-60
2021/12/01 02:43:23;;;;;;;10.58;6.47;;;;;;;;;;353212;148;857813;-59
2021/12/01 02:44:25;;;;;;;10.92;5.94;;;;;;;;;;358114;147;865807;-58
2021/12/01 02:45:27;;;;;;;7.47;5.97;;;;;;;;;;362884;146;860115;-59
2021/12/01 02:46:29;;;;;;;7.55;5.69;;;;;;;;;;362233;146;857151;-60
2021/12/01 02:47:30;;;;;;;8.98;6.09;;;;;;;;;;361060;148;860668;-58
2021/12/01 02:48:36;;;;;;;4.92;3.67;;;;;;;;;;360834;146;866597;-59
2021/12/01 02:49:36;;;;;;;5.19;3.54;;;;;;;;;;362570;146;864751;-59
2021/12/01 02:50:38;;;;;;;11.31;6.23;;;;;;;;;;359372;146;857194;-58
2021/12/01 02:51:40;;;;;;;9.99;5.91;;;;;;;;;;354165;148;857799;-58
2021/12/01 02:52:42;;;;;;;9.64;5.20;;;;;;;;;;357034;148;865762;-59
2021/12/01 02:53:43;;;;;;;7.89;5.29;;;;;;;;;;361865;146;857456;-58
2021/12/01 02:54:45;;;;;;;7.74;5.19;;;;;;;;;;361922;148;864822;-58
2021/12/01 02:55:53;;;;;;;7.74;6.16;;;;;;;;;;360785;148;866845;-58
2021/12/01 02:56:55;;;;;;;7.07;4.73;;;;;;;;;;361428;146;857188;-58
2021/12/01 02:57:59;;;;;;;10.37;6.55;;;;;;;;;;359894;146;859394;-58
2021/12/01 02:59:01;;;;;;;6.65;4.76;;;;;;;;;;362971;146;857277;-61
2021/12/01 03:00:03;;;;;;;6.98;4.34;;;;;;;;;;361228;146;857944;-58
2021/12/01 03:01:05;;;;;;;8.85;5.75;;;;;;;;;;362519;146;857761;-57
2021/12/01 03:02:07;;;;;;;9.60;5.58;;;;;;;;;;360430;146;857217;-58
2021/12/01 03:03:09;;;;;;;8.03;5.32;;;;;;;;;;361845;146;858487;-58
2021/12/01 03:04:11;;;;;;;8.85;5.69;;;;;;;;;;362510;146;857238;-58
2021/12/01 03:05:15;;;;;;;8.59;6.11;;;;;;;;;;363371;146;859112;-59
2021/12/01 03:06:19;;;;;;;11.28;6.62;;;;;;;;;;362001;145;857852;-58
2021/12/01 03:07:20;;;;;;;6.78;4.36;;;;;;;;;;362264;146;859985;-58
2021/12/01 03:08:22;;;;;;;7.94;4.94;;;;;;;;;;366069;145;858979;-58
2021/12/01 03:09:23;;;;;;;10.33;6.18;;;;;;;;;;365939;145;857301;-58
2021/12/01 03:10:26;;;;;;;7.72;5.00;;;;;;;;;;364207;145;865913;-59
2021/12/01 03:11:27;;;;;;;11.40;6.51;;;;;;;;;;363480;145;856069;-58
2021/12/01 03:12:29;;;;;;;11.12;6.25;;;;;;;;;;352711;148;863628;-58
2021/12/01 03:13:31;;;;;;;7.35;5.06;;;;;;;;;;363567;145;864069;-58
2021/12/01 03:14:33;;;;;;;10.11;6.32;;;;;;;;;;364516;145;856479;-60
2021/12/01 03:15:34;;;;;;;10.45;5.90;;;;;;;;;;365823;145;863843;-60
2021/12/01 03:16:36;;;;;;;10.29;6.28;;;;;;;;;;363589;145;863684;-58
2021/12/01 03:17:37;;;;;;;8.64;5.34;;;;;;;;;;364847;145;864731;-58
2021/12/01 03:18:40;;;;;;;9.36;5.71;;;;;;;;;;365751;145;856559;-58
2021/12/01 03:21:24;;;;;;;8.84;5.92;;;;;;;0.63;72.56;97660.59;365976;142;965714;-58
2021/12/01 03:22:26;;;;;;;7.97;5.33;;;;;;;0.58;72.39;97649.59;360006;147;864795;-59
2021/12/01 03:23:28;;;;;;;6.07;4.83;;;;;;;0.61;72.25;97658.92;361726;147;857276;-59
2021/12/01 03:24:33;;;;;;;6.99;4.85;;;;;;;0.60;72.09;97660.61;362542;146;858855;-58
2021/12/01 03:25:35;;;;;;;7.80;4.67;;;;;;;0.62;72.20;97653.81;362392;146;857196;-60
2021/12/01 03:26:37;;;;;;;5.37;3.78;;;;;;;0.66;72.07;97650.39;363455;147;859102;-60
2021/12/01 03:27:39;;;;;;;5.40;4.03;;;;;;;0.75;71.78;97651.20;360464;147;859613;-59
2021/12/01 03:28:42;;;;;;;4.13;3.06;;;;;;;;;;362277;146;857748;-59
2021/12/01 03:29:47;;;;;;;7.97;4.25;;;;;;;;;;363998;147;859751;-59
2021/12/01 03:30:49;;;;;;;5.95;3.63;;;;;;;;;;364333;147;857372;-60
2021/12/01 03:31:50;;;;;;;5.94;4.69;;;;;;;;;;360516;146;857229;-59
2021/12/01 03:32:52;;;;;;;7.31;4.67;;;;;;;;;;356275;149;864749;-59
2021/12/01 03:33:54;;;;;;;9.19;5.22;;;;;;;;;;363829;147;865454;-59
2021/12/01 03:34:57;;;;;;;8.21;5.03;;;;;;;;;;361944;147;865959;-60
2021/12/01 03:35:59;;;;;;;6.53;4.81;;;;;;;;;;362127;146;865229;-59
2021/12/01 03:37:01;;;;;;;8.31;5.61;;;;;;;;;;361514;147;857159;-59
2021/12/01 03:38:02;;;;;;;8.95;5.69;;;;;;;;;;361700;147;859410;-59
2021/12/01 03:39:04;;;;;;;6.77;5.49;;;;;;;;;;360089;146;866482;-60
2021/12/01 03:40:06;;;;;;;6.51;5.05;;;;;;;;;;357249;147;865980;-59
2021/12/01 03:41:08;;;;;;;7.55;5.09;;;;;;;;;;357766;147;857175;-58
2021/12/01 03:42:10;;;;;;;8.05;5.93;;;;;;;;;;359549;147;857149;-59
2021/12/01 03:43:12;;;;;;;7.81;4.71;;;;;;;;;;357644;147;865819;-60
2021/12/01 03:44:13;;;;;;;6.70;5.32;;;;;;;;;;357517;147;864730;-59
2021/12/01 03:45:15;;;;;;;8.21;5.66;;;;;;;;;;357434;148;867010;-59
2021/12/01 03:46:19;;;;;;;7.01;5.29;;;;;;;;;;356761;147;865482;-59
2021/12/01 03:47:20;;;;;;;8.81;5.54;;;;;;;;;;360679;147;857158;-59
2021/12/01 03:48:23;;;;;;;10.91;6.19;;;;;;;;;;359667;147;857730;-59
2021/12/01 03:49:24;;;;;;;8.65;5.55;;;;;;;;;;358508;147;860719;-59
2021/12/01 03:50:27;;;;;;;7.36;4.89;;;;;;;;;;357963;147;857353;-59
2021/12/01 03:51:29;;;;;;;9.81;6.04;;;;;;;;;;355884;147;857172;-59
2021/12/01 03:52:30;;;;;;;7.73;5.65;;;;;;;;;;360774;147;865587;-59
2021/12/01 03:53:32;;;;;;;8.61;6.17;;;;;;;;;;358164;147;859829;-60
2021/12/01 03:54:33;;;;;;;9.46;5.81;;;;;;;;;;354630;147;864848;-58
2021/12/01 03:55:35;;;;;;;8.50;4.71;;;;;;;;;;357565;147;867686;-59
2021/12/01 03:56:37;;;;;;;10.51;6.17;;;;;;;;;;358896;147;864751;-59
2021/12/01 03:57:38;;;;;;;9.46;5.24;;;;;;;;;;358794;147;857419;-59
2021/12/01 03:58:40;;;;;;;10.11;5.66;;;;;;;;;;359119;149;866022;-59
2021/12/01 03:59:42;;;;;;;5.55;3.74;;;;;;;;;;359617;147;865995;-59
2021/12/01 04:00:43;;;;;;;8.41;5.85;;;;;;;;;;357584;147;867072;-60
2021/12/01 04:01:45;;;;;;;7.18;4.95;;;;;;;;;;358716;149;857255;-59
2021/12/01 04:02:47;;;;;;;8.86;5.12;;;;;;;;;;358135;149;867528;-59
2021/12/01 04:03:48;;;;;;;8.54;5.44;;;;;;;;;;358664;147;864864;-59
2021/12/01 04:04:50;;;;;;;7.46;4.66;;;;;;;;;;358094;148;866412;-59
2021/12/01 04:05:52;;;;;;;9.24;5.92;;;;;;;;;;355984;147;865444;-58
2021/12/01 04:06:53;;;;;;;6.01;4.69;;;;;;;;;;359899;147;865131;-58
2021/12/01 04:07:55;;;;;;;8.16;5.59;;;;;;;;;;358640;147;864792;-59
2021/12/01 04:08:57;;;;;;;8.69;5.78;;;;;;;;;;356043;147;866610;-59
2021/12/01 04:09:58;;;;;;;8.37;6.05;;;;;;;;;;357291;147;864786;-57
2021/12/01 04:11:00;;;;;;;9.60;5.90;;;;;;;;;;358405;147;859469;-58
2021/12/01 04:12:02;;;;;;;9.86;5.57;;;;;;;;;;358947;147;864926;-60
2021/12/01 04:13:03;;;;;;;11.45;6.49;;;;;;;;;;359093;149;866561;-59
2021/12/01 04:14:05;;;;;;;8.28;4.82;;;;;;;;;;359938;147;864959;-59
2021/12/01 04:15:07;;;;;;;9.67;6.59;;;;;;;;;;359558;146;864944;-59
2021/12/01 04:16:09;;;;;;;10.89;5.73;;;;;;;;;;359427;147;866678;-59
2021/12/01 04:17:10;;;;;;;9.44;5.85;;;;;;;;;;361573;147;857199;-59
2021/12/01 04:18:12;;;;;;;7.60;5.37;;;;;;;;;;359647;146;864973;-59
2021/12/01 04:19:13;;;;;;;8.08;6.42;;;;;;;;;;358485;147;865057;-60
2021/12/01 04:20:16;;;;;;;11.72;6.17;;;;;;;;;;357470;147;864950;-60
2021/12/01 05:04:11;;;;;;;8.74;4.65;;;;;;;-1.15;81.57;97656.58;369977;142;881097;-63
2021/12/01 05:05:13;;;;;;;9.56;5.70;;;;;;;-1.26;81.60;97663.31;363781;146;857276;-64
2021/12/01 05:06:18;;;;;;;5.98;4.05;;;;;;;-1.26;82.33;97650.62;360101;146;859024;-63
2021/12/01 05:07:20;;;;;;;3.76;2.94;;;;;;;-1.26;82.33;97650.62;353714;147;858412;-65
2021/12/01 05:08:23;;;;;;;7.73;4.77;;;;;;;-1.20;82.21;97659.12;355319;147;865745;-65
2021/12/01 05:09:25;;;;;;;5.37;3.89;;;;;;;-1.10;82.27;97652.34;361460;146;857080;-64
2021/12/01 05:10:27;;;;;;;7.05;3.90;;;;;;;;;;364007;146;857226;-65
2021/12/01 05:11:29;;;;;;;5.98;3.70;;;;;;;;;;363288;146;857607;-64
2021/12/01 05:12:30;;;;;;;8.00;4.36;;;;;;;;;;364455;146;864813;-64
2021/12/01 05:13:32;;;;;;;6.89;4.27;;;;;;;;;;364684;147;858053;-64
2021/12/01 05:14:34;;;;;;;7.51;4.94;;;;;;;;;;362809;145;864821;-64
2021/12/01 05:15:36;;;;;;;8.13;4.83;;;;;;;;;;362615;146;864673;-64
2021/12/01 05:16:39;;;;;;;8.36;4.04;;;;;;;;;;363727;147;858115;-65
2021/12/01 05:17:41;;;;;;;6.76;4.92;;;;;;;;;;365617;146;857345;-65
2021/12/01 05:18:43;;;;;;;8.60;5.14;;;;;;;;;;364206;146;860020;-65
2021/12/01 05:19:44;;;;;;;10.32;5.16;;;;;;;;;;362140;145;865996;-65
2021/12/01 05:20:46;;;;;;;9.59;6.30;;;;;;;;;;361118;146;865097;-65
2021/12/01 05:21:51;;;;;;;13.72;6.29;;;;;;;;;;363851;146;857331;-65
2021/12/01 05:22:52;;;;;;;12.95;6.86;;;;;;;;;;361820;145;865639;-65
2021/12/01 05:23:54;;;;;;;11.55;5.96;;;;;;;;;;362804;144;857631;-65
2021/12/01 05:24:56;;;;;;;11.17;6.02;;;;;;;;;;364208;145;858851;-65
2021/12/01 05:25:57;;;;;;;11.93;6.64;;;;;;;;;;362396;145;865047;-65
2021/12/01 05:26:59;;;;;;;11.51;6.67;;;;;;;;;;362707;146;865743;-65
2021/12/01 05:28:01;;;;;;;12.52;6.64;;;;;;;;;;362739;145;859228;-65
2021/12/01 05:29:03;;;;;;;8.74;6.04;;;;;;;;;;360638;146;865216;-65
2021/12/01 05:30:06;;;;;;;11.64;6.80;;;;;;;;;;364090;144;864959;-65
2021/12/01 05:31:08;;;;;;;11.27;7.01;;;;;;;;;;363527;146;858700;-64
2021/12/01 05:32:09;;;;;;;9.22;6.07;;;;;;;;;;365081;146;857190;-64
2021/12/01 05:33:12;;;;;;;10.59;6.69;;;;;;;;;;362411;145;857733;-65
2021/12/01 05:34:14;;;;;;;10.27;6.96;;;;;;;;;;365968;145;860666;-65
2021/12/01 05:35:16;;;;;;;10.75;6.05;;;;;;;;;;367314;146;860684;-64
2021/12/01 05:36:18;;;;;;;9.91;6.13;;;;;;;;;;363017;145;857328;-65
2021/12/01 05:37:20;;;;;;;10.68;6.70;;;;;;;;;;364069;146;858634;-65
2021/12/01 05:38:22;;;;;;;10.50;6.60;;;;;;;;;;364248;146;864976;-65
2021/12/01 05:39:27;;;;;;;13.27;6.78;;;;;;;;;;360780;146;858593;-65
2021/12/01 05:40:29;;;;;;;7.75;4.83;;;;;;;;;;361952;144;865074;-65
2021/12/01 05:41:30;;;;;;;8.30;5.22;;;;;;;;;;361873;145;867362;-65
2021/12/01 05:42:32;;;;;;;8.61;5.68;;;;;;;;;;366187;145;857768;-65
2021/12/01 05:43:34;;;;;;;11.16;6.18;;;;;;;;;;363886;145;864828;-64
2021/12/01 05:44:36;;;;;;;10.77;6.56;;;;;;;;;;361569;145;865024;-65
2021/12/01 05:45:38;;;;;;;9.25;5.84;;;;;;;;;;363831;145;865753;-66
2021/12/01 05:46:40;;;;;;;9.27;5.93;;;;;;;;;;362997;145;857353;-65
2021/12/01 05:47:41;;;;;;;10.88;6.66;;;;;;;;;;363244;145;858726;-65
2021/12/01 05:48:43;;;;;;;8.91;5.37;;;;;;;;;;366290;146;857598;-65
2021/12/01 05:49:45;;;;;;;10.38;6.37;;;;;;;;;;367028;146;865484;-65
2021/12/01 05:50:46;;;;;;;10.22;6.45;;;;;;;;;;364708;145;866685;-67
2021/12/01 05:51:48;;;;;;;8.81;5.59;;;;;;;;;;355686;149;857405;-65
2021/12/01 05:52:50;;;;;;;9.90;6.68;;;;;;;;;;362055;146;865674;-65
2021/12/01 05:53:52;;;;;;;13.05;7.04;;;;;;;;;;363098;146;857186;-64
2021/12/01 05:54:54;;;;;;;8.69;6.48;;;;;;;;;;363045;145;859071;-63
2021/12/01 05:55:56;;;;;;;10.78;6.55;;;;;;;;;;364177;147;864704;-65
2021/12/01 05:56:58;;;;;;;8.12;6.14;;;;;;;;;;362646;145;858093;-65
2021/12/01 05:57:59;;;;;;;12.36;6.41;;;;;;;;;;364701;145;857108;-65
2021/12/01 05:59:01;;;;;;;6.68;4.26;;;;;;;;;;361755;146;858951;-65
2021/12/01 06:00:04;;;;;;;8.30;5.93;;;;;;;;;;365394;145;864761;-64
2021/12/01 06:01:05;;;;;;;9.06;6.41;;;;;;;;;;363348;145;857335;-65
2021/12/01 06:02:07;;;;;;;11.19;6.54;;;;;;;;;;364748;146;858546;-65
2021/12/01 06:03:09;;;;;;;9.77;6.23;;;;;;;;;;364742;146;864868;-65
2021/12/01 06:04:11;;;;;;;9.76;6.91;;;;;;;;;;362134;145;859055;-65
2021/12/01 06:05:13;;;;;;;8.85;6.14;;;;;;;;;;360967;145;859157;-66
2021/12/01 06:06:15;;;;;;;8.89;5.97;;;;;;;;;;356393;147;857758;-66
2021/12/01 06:07:17;;;;;;;10.87;6.38;;;;;;;;;;356659;147;857345;-65
2021/12/01 06:08:18;;;;;;;10.71;6.93;;;;;;;;;;363757;146;857656;-66
2021/12/01 06:09:20;;;;;;;9.81;6.63;;;;;;;;;;363099;144;865000;-66
2021/12/01 06:10:23;;;;;;;10.19;6.16;;;;;;;;;;362268;147;866656;-66
2021/12/01 06:11:25;;;;;;;8.55;5.59;;;;;;;;;;363132;146;858297;-66
2021/12/01 06:12:27;;;;;;;9.56;6.48;;;;;;;;;;364964;144;858622;-66
2021/12/01 06:13:29;;;;;;;9.07;5.50;;;;;;;;;;365838;146;864969;-64
2021/12/01 06:14:32;;;;;;;8.29;5.49;;;;;;;;;;362462;145;858551;-64
2021/12/01 06:15:34;;;;;;;9.36;6.26;;;;;;;;;;363754;145;866462;-64
2021/12/01 06:16:36;;;;;;;9.36;6.70;;;;;;;;;;364053;145;859321;-65
2021/12/01 06:17:38;;;;;;;7.86;5.49;;;;;;;;;;357659;149;858138;-65
2021/12/01 06:18:39;;;;;;;10.26;5.82;;;;;;;;;;355394;145;864885;-65
2021/12/01 06:19:41;;;;;;;9.65;6.09;;;;;;;;;;364199;145;865951;-64
2021/12/01 06:20:43;;;;;;;8.78;5.86;;;;;;;;;;363863;145;865035;-65
2021/12/01 06:21:45;;;;;;;12.48;7.02;;;;;;;;;;361812;145;865069;-65
2021/12/01 06:22:47;;;;;;;11.17;6.90;;;;;;;;;;363810;145;859119;-65
2021/12/01 06:23:49;;;;;;;11.63;6.81;;;;;;;;;;361433;146;861891;-65
2021/12/01 06:24:51;;;;;;;11.37;7.09;;;;;;;;;;363402;146;857040;-65
2021/12/01 06:25:52;;;;;;;12.56;7.11;;;;;;;;;;366866;145;857691;-65
2021/12/01 06:26:55;;;;;;;10.56;6.56;;;;;;;;;;364369;145;865030;-66
2021/12/01 06:27:56;;;;;;;11.57;6.92;;;;;;;;;;362006;147;864237;-66
2021/12/01 06:28:58;;;;;;;9.28;6.72;;;;;;;;;;365545;146;858924;-66
2021/12/01 06:30:00;;;;;;;10.31;6.46;;;;;;;;;;364584;146;863775;-65
2021/12/01 06:31:02;;;;;;;11.44;7.29;;;;;;;;;;361034;144;865544;-66
2021/12/01 06:32:04;;;;;;;10.99;7.09;;;;;;;;;;363681;147;858368;-66
2021/12/01 06:33:06;;;;;;;13.29;7.56;;;;;;;;;;365065;147;859376;-66
2021/12/01 06:34:07;;;;;;;13.50;7.02;;;;;;;;;;361464;145;857839;-65
2021/12/01 06:35:09;;;;;;;11.64;7.61;;;;;;;;;;361666;146;864820;-66
2021/12/01 06:36:12;;;;;;;11.24;6.51;;;;;;;;;;363219;147;865751;-65
2021/12/01 06:37:15;;;;;;;10.67;7.11;;;;;;;;;;361879;145;859759;-67
2021/12/01 06:38:18;;;;;;;9.64;7.34;;;;;;;;;;362891;146;859649;-67
2021/12/01 06:39:20;;;;;;;12.97;7.29;;;;;;;;;;365088;146;865542;-65
2021/12/01 06:40:24;;;;;;;13.79;7.64;;;;;;;;;;365196;146;859119;-65
2021/12/01 06:41:26;;;;;;;13.16;7.60;;;;;;;;;;362045;145;865466;-64
2021/12/01 06:42:28;;;;;;;11.63;7.49;;;;;;;;;;364399;146;857810;-65
2021/12/01 06:43:31;;;;;;;11.54;7.47;;;;;;;;;;357455;149;865434;-65
2021/12/01 06:44:33;;;;;;;11.02;7.35;;;;;;;;;;353436;148;857537;-64
2021/12/01 06:45:38;;;;;;;11.46;6.94;;;;;;;;;;363312;146;864393;-65
2021/12/01 06:46:45;;;;;;;11.87;7.17;;;;;;;;;;365899;146;863960;-65
2021/12/01 06:47:46;;;;;;;12.64;7.73;;;;;;;;;;364266;146;856355;-66
2021/12/01 06:48:48;;;;;;;10.50;6.92;;;;;;;;;;362179;145;864011;-65
2021/12/01 06:49:50;;;;;;;10.04;6.68;;;;;;;;;;363615;145;865253;-65
2021/12/01 06:50:52;;;;;;;9.61;6.84;;;;;;;;;;365379;146;863863;-66
2021/12/01 06:51:53;;;;;;;11.19;6.66;;;;;;;;;;362080;145;855994;-66
2021/12/01 06:52:55;;;;;;;9.21;6.36;;;;;;;;;;363576;146;863656;-66